createdAt,value
2022-12-03T00:00:34.722Z,74.72
2022-12-03T00:03:01.418Z,75.06
2022-12-03T00:05:28.045Z,75.07
2022-12-03T00:07:54.722Z,75.30
2022-12-03T00:10:21.237Z,75.34
2022-12-03T00:12:47.722Z,75.07
2022-12-03T00:15:14.621Z,74.92
2022-12-03T00:17:41.089Z,75.07
2022-12-03T00:20:08.999Z,75.08
2022-12-03T00:22:35.682Z,75.22
2022-12-03T00:25:02.205Z,75.31
2022-12-03T00:27:28.678Z,74.92
2022-12-03T00:29:55.277Z,75.23
2022-12-03T00:32:21.709Z,75.13
2022-12-03T00:34:48.316Z,75.05
2022-12-03T00:37:14.796Z,74.84
2022-12-03T00:39:41.243Z,74.95
2022-12-03T00:42:07.762Z,75.07
2022-12-03T00:44:34.266Z,75.14
2022-12-03T00:47:00.763Z,75.61
2022-12-03T00:49:27.370Z,74.99
2022-12-03T00:51:53.796Z,75.56
2022-12-03T00:54:20.304Z,75.41
2022-12-03T00:56:46.767Z,74.81
2022-12-03T00:59:13.483Z,75.84
2022-12-03T01:01:40.049Z,75.82
2022-12-03T01:04:06.553Z,75.63
2022-12-03T01:06:33.675Z,75.79
2022-12-03T01:09:00.236Z,75.38
2022-12-03T01:11:38.632Z,75.10
2022-12-03T01:14:19.705Z,75.41
2022-12-03T01:16:47.755Z,76.04
2022-12-03T01:19:17.401Z,75.60
2022-12-03T01:21:45.174Z,75.60
2022-12-03T01:24:11.977Z,75.58
2022-12-03T01:26:38.586Z,75.50
2022-12-03T01:29:05.152Z,75.70
2022-12-03T01:31:50.377Z,75.63
2022-12-03T01:34:17.271Z,75.52
2022-12-03T01:36:43.783Z,75.24
2022-12-03T01:39:10.357Z,75.07
2022-12-03T01:41:37.483Z,75.43
2022-12-03T01:44:11.867Z,75.51
2022-12-03T01:46:41.021Z,75.17
2022-12-03T01:49:14.720Z,75.14
2022-12-03T01:51:41.196Z,75.20
2022-12-03T01:54:15.822Z,75.02
2022-12-03T01:56:42.453Z,74.92
2022-12-03T01:59:13.666Z,75.00
2022-12-03T02:01:40.174Z,75.02
2022-12-03T02:04:06.801Z,75.12
2022-12-03T02:06:33.364Z,75.00
2022-12-03T02:09:00.322Z,74.72
2022-12-03T02:11:37.137Z,74.85
2022-12-03T02:14:07.427Z,74.90
2022-12-03T02:16:37.037Z,75.28
2022-12-03T02:19:08.589Z,75.03
2022-12-03T02:21:58.179Z,74.90
2022-12-03T02:24:33.414Z,75.08
2022-12-03T02:26:59.873Z,75.25
2022-12-03T02:29:27.135Z,75.20
2022-12-03T02:31:53.709Z,75.10
2022-12-03T02:34:40.291Z,75.27
2022-12-03T02:37:09.428Z,75.37
2022-12-03T02:39:39.224Z,75.01
2022-12-03T02:42:25.416Z,75.05
2022-12-03T02:44:52.857Z,75.27
2022-12-03T02:47:21.405Z,75.21
2022-12-03T02:49:48.425Z,75.04
2022-12-03T02:52:15.057Z,74.76
2022-12-03T02:54:41.923Z,75.14
2022-12-03T02:57:08.774Z,75.30
2022-12-03T02:59:35.291Z,75.52
2022-12-03T03:02:01.930Z,75.19
2022-12-03T03:04:29.231Z,75.63
2022-12-03T03:06:55.838Z,75.47
2022-12-03T03:09:22.621Z,75.52
2022-12-03T03:11:49.107Z,75.30
2022-12-03T03:14:15.881Z,75.23
2022-12-03T03:16:42.551Z,75.79
2022-12-03T03:19:09.647Z,75.65
2022-12-03T03:21:36.099Z,75.69
2022-12-03T03:24:02.590Z,75.63
2022-12-03T03:26:29.049Z,75.80
2022-12-03T03:28:55.675Z,75.66
2022-12-03T03:31:23.684Z,75.60
2022-12-03T03:33:51.534Z,75.73
2022-12-03T03:36:19.354Z,75.55
2022-12-03T03:38:47.171Z,75.27
2022-12-03T03:41:15.812Z,75.85
2022-12-03T03:43:45.605Z,75.67
2022-12-03T03:46:12.468Z,75.34
2022-12-03T03:48:41.428Z,75.65
2022-12-03T03:51:09.710Z,75.58
2022-12-03T03:53:40.190Z,75.38
2022-12-03T03:56:07.811Z,75.35
2022-12-03T03:58:34.636Z,75.24
2022-12-03T04:01:01.956Z,74.91
2022-12-03T04:03:29.277Z,74.78
2022-12-03T04:05:55.859Z,74.71
2022-12-03T04:08:22.818Z,74.51
2022-12-03T04:11:08.184Z,74.78
2022-12-03T04:13:34.706Z,75.15
2022-12-03T04:16:01.557Z,75.07
2022-12-03T04:18:42.874Z,74.90
2022-12-03T04:21:34.118Z,75.20
2022-12-03T04:24:01.247Z,74.71
2022-12-03T04:26:46.472Z,74.96
2022-12-03T04:29:13.406Z,75.16
2022-12-03T04:31:58.403Z,75.40
2022-12-03T04:34:44.245Z,75.09
2022-12-03T04:37:11.083Z,75.01
2022-12-03T04:39:37.937Z,75.34
2022-12-03T04:42:05.984Z,74.69
2022-12-03T04:44:33.486Z,74.92
2022-12-03T04:47:01.396Z,75.20
2022-12-03T04:49:28.056Z,75.26
2022-12-03T04:51:54.720Z,75.04
2022-12-03T04:54:21.214Z,74.59
2022-12-03T04:56:47.676Z,75.00
2022-12-03T04:59:16.415Z,75.44
2022-12-03T05:01:43.867Z,75.04
2022-12-03T05:04:11.436Z,75.15
2022-12-03T05:06:38.195Z,75.28
2022-12-03T05:09:05.104Z,74.83
2022-12-03T05:11:31.778Z,74.74
2022-12-03T05:13:58.460Z,74.37
2022-12-03T05:16:25.138Z,74.73
2022-12-03T05:18:51.791Z,74.34
2022-12-03T05:21:18.276Z,74.67
2022-12-03T05:23:44.810Z,74.10
2022-12-03T05:26:11.250Z,74.68
2022-12-03T05:28:37.726Z,74.35
2022-12-03T05:31:05.259Z,74.77
2022-12-03T05:33:31.845Z,74.54
2022-12-03T05:35:58.651Z,74.85
2022-12-03T05:38:25.109Z,74.66
2022-12-03T05:40:51.599Z,74.45
2022-12-03T05:43:18.295Z,74.72
2022-12-03T05:45:45.168Z,74.71
2022-12-03T05:48:13.857Z,74.47
2022-12-03T05:50:43.889Z,74.48
2022-12-03T05:53:11.848Z,74.51
2022-12-03T05:55:38.700Z,75.03
2022-12-03T05:58:05.719Z,75.08
2022-12-03T06:00:42.348Z,75.01
2022-12-03T06:03:10.012Z,74.43
2022-12-03T06:05:36.665Z,75.01
2022-12-03T06:08:03.516Z,74.58
2022-12-03T06:10:30.819Z,74.39
2022-12-03T06:12:57.369Z,74.26
2022-12-03T06:15:24.052Z,74.68
2022-12-03T06:17:50.683Z,74.97
2022-12-03T06:20:19.419Z,75.18
2022-12-03T06:22:49.384Z,75.22
2022-12-03T06:25:16.930Z,74.66
2022-12-03T06:27:43.704Z,74.83
2022-12-03T06:30:13.542Z,74.79
2022-12-03T06:32:40.653Z,74.62
2022-12-03T06:35:07.439Z,74.93
2022-12-03T06:37:33.896Z,74.91
2022-12-03T06:40:00.905Z,75.41
2022-12-03T06:42:27.353Z,75.52
2022-12-03T06:44:54.134Z,75.14
2022-12-03T06:47:20.900Z,75.23
2022-12-03T06:49:47.350Z,74.84
2022-12-03T06:52:13.885Z,74.90
2022-12-03T06:54:40.883Z,75.31
2022-12-03T06:57:07.297Z,74.78
2022-12-03T06:59:35.797Z,74.92
2022-12-03T07:02:03.017Z,74.74
2022-12-03T07:04:29.561Z,74.79
2022-12-03T07:06:56.027Z,74.72
2022-12-03T07:09:22.541Z,74.48
2022-12-03T07:11:49.008Z,74.68
2022-12-03T07:14:15.484Z,74.59
2022-12-03T07:16:43.606Z,74.35
2022-12-03T07:19:11.155Z,74.81
2022-12-03T07:21:38.070Z,74.51
2022-12-03T07:24:05.606Z,74.78
2022-12-03T07:26:32.532Z,74.23
2022-12-03T07:28:59.204Z,74.35
2022-12-03T07:31:26.051Z,74.79
2022-12-03T07:33:52.800Z,74.45
2022-12-03T07:36:19.315Z,74.83
2022-12-03T07:38:46.027Z,74.64
2022-12-03T07:41:12.597Z,74.43
2022-12-03T07:43:39.049Z,74.09
2022-12-03T07:46:05.694Z,74.41
2022-12-03T07:48:32.211Z,74.04
2022-12-03T07:51:01.219Z,73.89
2022-12-03T07:53:27.713Z,74.00
2022-12-03T07:55:54.354Z,73.68
2022-12-03T07:58:20.868Z,73.73
2022-12-03T08:00:47.399Z,74.19
2022-12-03T08:03:13.925Z,73.73
2022-12-03T08:05:40.384Z,73.97
2022-12-03T08:08:06.927Z,73.81
2022-12-03T08:10:33.515Z,74.28
2022-12-03T08:13:00.121Z,74.26
2022-12-03T08:15:32.380Z,74.47
2022-12-03T08:18:13.019Z,74.10
2022-12-03T08:20:41.581Z,73.83
2022-12-03T08:23:16.255Z,74.38
2022-12-03T08:25:44.294Z,74.37
2022-12-03T08:28:16.611Z,74.12
2022-12-03T08:30:45.166Z,73.89
2022-12-03T08:33:25.964Z,73.52
2022-12-03T08:35:52.510Z,73.50
2022-12-03T08:38:22.332Z,73.27
2022-12-03T08:40:51.237Z,72.66
2022-12-03T08:43:25.364Z,72.99
2022-12-03T08:45:55.044Z,73.18
2022-12-03T08:48:26.022Z,72.50
2022-12-03T08:50:55.582Z,72.72
2022-12-03T08:53:48.943Z,72.21
2022-12-03T08:56:24.526Z,71.74
2022-12-03T08:59:23.759Z,72.27
2022-12-03T09:01:51.949Z,72.30
2022-12-03T09:04:26.500Z,72.04
2022-12-03T09:06:54.259Z,74.04
2022-12-03T09:09:21.147Z,74.50
2022-12-03T09:11:47.825Z,74.13
2022-12-03T09:14:18.470Z,74.49
2022-12-03T09:16:45.597Z,73.26
2022-12-03T09:19:12.154Z,73.94
2022-12-03T09:21:39.086Z,73.51
2022-12-03T09:24:05.791Z,72.34
2022-12-03T09:26:32.282Z,70.63
2022-12-03T09:28:58.787Z,71.12
2022-12-03T09:31:25.316Z,70.96
2022-12-03T09:33:51.794Z,70.40
2022-12-03T09:36:18.267Z,69.88
2022-12-03T09:38:47.862Z,69.93
2022-12-03T09:41:14.937Z,69.96
2022-12-03T09:44:03.297Z,69.95
2022-12-03T09:46:29.503Z,69.71
2022-12-03T09:48:56.737Z,69.09
2022-12-03T09:51:26.756Z,70.00
2022-12-03T09:53:53.217Z,69.86
2022-12-03T09:56:23.152Z,69.48
2022-12-03T09:58:50.292Z,69.04
2022-12-03T10:01:17.844Z,69.53
2022-12-03T10:03:48.085Z,69.59
2022-12-03T10:06:19.535Z,70.13
2022-12-03T10:08:48.800Z,70.68
2022-12-03T10:11:17.195Z,69.93
2022-12-03T10:13:44.097Z,70.69
2022-12-03T10:16:15.319Z,69.97
2022-12-03T10:18:50.737Z,70.27
2022-12-03T10:21:23.086Z,70.57
2022-12-03T10:23:55.084Z,70.77
2022-12-03T10:26:38.778Z,70.93
2022-12-03T10:29:13.156Z,70.51
2022-12-03T10:31:39.869Z,71.19
2022-12-03T10:34:06.340Z,70.71
2022-12-03T10:36:33.471Z,70.97
2022-12-03T10:39:09.261Z,70.78
2022-12-03T10:41:37.773Z,70.36
2022-12-03T10:44:22.415Z,71.00
2022-12-03T10:47:10.566Z,71.32
2022-12-03T10:49:37.915Z,70.97
2022-12-03T10:52:06.158Z,70.87
2022-12-03T10:54:34.543Z,71.14
2022-12-03T10:57:01.842Z,70.94
2022-12-03T10:59:33.178Z,70.86
2022-12-03T11:01:59.809Z,70.40
2022-12-03T11:04:35.299Z,70.52
2022-12-03T11:07:03.657Z,71.17
2022-12-03T11:09:32.857Z,70.58
2022-12-03T11:12:07.517Z,70.69
2022-12-03T11:14:56.656Z,70.50
2022-12-03T11:17:44.951Z,71.38
2022-12-03T11:20:11.437Z,70.88
2022-12-03T11:22:40.786Z,70.94
2022-12-03T11:25:25.823Z,71.11
2022-12-03T11:28:10.520Z,70.77
2022-12-03T11:30:58.510Z,71.10
2022-12-03T11:33:31.052Z,70.81
2022-12-03T11:36:03.710Z,70.68
2022-12-03T11:38:52.918Z,70.50
2022-12-03T11:41:23.570Z,70.62
2022-12-03T11:43:52.836Z,70.62
2022-12-03T11:46:25.552Z,70.66
2022-12-03T11:48:55.645Z,70.63
2022-12-03T11:51:24.576Z,70.55
2022-12-03T11:53:53.093Z,71.01
2022-12-03T11:56:23.783Z,71.03
2022-12-03T11:59:01.476Z,70.78
2022-12-03T12:01:39.408Z,70.49
2022-12-03T12:04:07.862Z,70.92
2022-12-03T12:06:48.709Z,70.61
2022-12-03T12:09:54.915Z,70.46
2022-12-03T12:12:28.213Z,70.75
2022-12-03T12:14:54.778Z,70.76
2022-12-03T12:17:33.084Z,70.96
2022-12-03T12:20:31.992Z,70.48
2022-12-03T12:23:23.052Z,70.60
2022-12-03T12:25:53.950Z,70.82
2022-12-03T12:28:20.936Z,71.14
2022-12-03T12:30:47.781Z,70.99
2022-12-03T12:33:23.022Z,70.89
2022-12-03T12:35:50.103Z,70.94
2022-12-03T12:38:18.969Z,70.84
2022-12-03T12:40:49.140Z,71.17
2022-12-03T12:43:25.366Z,71.51
2022-12-03T12:46:45.441Z,71.01
2022-12-03T12:48:59.814Z,71.05
2022-12-03T12:51:26.588Z,71.06
2022-12-03T12:53:53.858Z,71.11
2022-12-03T12:56:30.260Z,71.12
2022-12-03T12:59:09.343Z,70.44
2022-12-03T13:01:36.468Z,71.50
2022-12-03T13:04:12.299Z,71.10
2022-12-03T13:06:39.522Z,71.17
2022-12-03T13:09:14.701Z,71.12
2022-12-03T13:11:45.749Z,71.05
2022-12-03T13:14:19.320Z,71.24
2022-12-03T13:16:47.829Z,71.72
2022-12-03T13:19:43.541Z,71.50
2022-12-03T13:22:22.566Z,71.11
2022-12-03T13:24:54.771Z,71.32
2022-12-03T13:27:31.036Z,71.38
2022-12-03T13:30:14.398Z,71.27
2022-12-03T13:32:42.590Z,71.58
2022-12-03T13:35:39.471Z,71.46
2022-12-03T13:38:15.620Z,71.93
2022-12-03T13:40:42.411Z,71.92
2022-12-03T13:43:19.281Z,71.99
2022-12-03T13:45:49.897Z,72.24
2022-12-03T13:48:22.238Z,71.87
2022-12-03T13:50:49.493Z,71.80
2022-12-03T13:53:23.335Z,71.52
2022-12-03T13:55:53.808Z,72.09
2022-12-03T13:58:20.300Z,72.03
2022-12-03T14:00:46.928Z,72.23
2022-12-03T14:03:13.526Z,71.72
2022-12-03T14:05:40.146Z,71.61
2022-12-03T14:08:06.725Z,71.81
2022-12-03T14:10:33.423Z,72.07
2022-12-03T14:13:00.014Z,71.69
2022-12-03T14:15:26.759Z,72.44
2022-12-03T14:17:53.853Z,72.08
2022-12-03T14:20:36.529Z,72.18
2022-12-03T14:23:03.022Z,71.77
2022-12-03T14:25:29.504Z,72.49
2022-12-03T14:27:56.102Z,71.87
2022-12-03T14:30:22.586Z,72.00
2022-12-03T14:32:49.051Z,71.86
2022-12-03T14:35:17.837Z,71.75
2022-12-03T14:37:44.375Z,72.00
2022-12-03T14:40:13.226Z,71.78
2022-12-03T14:42:43.127Z,71.67
2022-12-03T14:45:09.777Z,71.52
2022-12-03T14:47:36.311Z,71.73
2022-12-03T14:50:03.220Z,71.82
2022-12-03T14:52:29.730Z,71.82
2022-12-03T14:54:56.346Z,71.78
2022-12-03T14:57:22.803Z,71.62
2022-12-03T14:59:49.313Z,71.74
2022-12-03T15:02:15.979Z,72.12
2022-12-03T15:04:42.482Z,72.17
2022-12-03T15:07:09.370Z,71.87
2022-12-03T15:09:35.986Z,71.95
2022-12-03T15:12:02.559Z,72.17
2022-12-03T15:14:29.294Z,72.10
2022-12-03T15:16:55.863Z,72.20
2022-12-03T15:19:22.471Z,72.43
2022-12-03T15:21:49.225Z,72.43
2022-12-03T15:24:15.793Z,72.11
2022-12-03T15:26:43.403Z,72.08
2022-12-03T15:29:10.036Z,72.03
2022-12-03T15:31:36.666Z,72.00
2022-12-03T15:34:03.149Z,71.90
2022-12-03T15:36:30.110Z,71.98
2022-12-03T15:38:57.642Z,71.85
2022-12-03T15:41:28.980Z,71.77
2022-12-03T15:43:58.397Z,72.03
2022-12-03T15:46:25.405Z,72.19
2022-12-03T15:48:52.092Z,72.43
2022-12-03T15:51:18.882Z,72.33
2022-12-03T15:53:45.525Z,72.27
2022-12-03T15:56:12.142Z,72.38
2022-12-03T15:58:39.927Z,72.55
2022-12-03T16:01:07.894Z,72.34
2022-12-03T16:03:34.504Z,72.27
2022-12-03T16:06:01.445Z,72.51
2022-12-03T16:08:27.993Z,72.32
2022-12-03T16:10:54.486Z,72.23
2022-12-03T16:13:21.461Z,73.08
2022-12-03T16:15:48.119Z,72.48
2022-12-03T16:18:14.634Z,72.64
2022-12-03T16:20:41.178Z,72.75
2022-12-03T16:23:08.251Z,72.58
2022-12-03T16:25:34.750Z,72.49
2022-12-03T16:28:01.266Z,72.51
2022-12-03T16:30:27.769Z,72.46
2022-12-03T16:32:54.256Z,72.24
2022-12-03T16:35:21.288Z,72.59
2022-12-03T16:37:47.776Z,72.32
2022-12-03T16:40:14.613Z,72.34
2022-12-03T16:42:41.400Z,72.38
2022-12-03T16:45:09.512Z,72.48
2022-12-03T16:47:36.034Z,72.36
2022-12-03T16:50:05.323Z,72.40
2022-12-03T16:52:31.810Z,72.60
2022-12-03T16:54:58.299Z,72.42
2022-12-03T16:57:28.878Z,72.65
2022-12-03T16:59:58.333Z,72.89
2022-12-03T17:02:24.941Z,73.08
2022-12-03T17:04:51.468Z,73.32
2022-12-03T17:07:18.039Z,72.63
2022-12-03T17:09:44.453Z,72.76
2022-12-03T17:12:10.907Z,72.59
2022-12-03T17:14:37.422Z,73.08
2022-12-03T17:17:03.939Z,72.50
2022-12-03T17:19:30.405Z,73.24
2022-12-03T17:21:57.356Z,72.96
2022-12-03T17:24:23.797Z,73.16
2022-12-03T17:26:50.251Z,72.51
2022-12-03T17:29:16.722Z,72.75
2022-12-03T17:31:43.379Z,72.90
2022-12-03T17:34:10.201Z,73.04
2022-12-03T17:36:36.750Z,73.17
2022-12-03T17:39:03.710Z,73.03
2022-12-03T17:41:30.178Z,73.03
2022-12-03T17:43:56.637Z,72.98
2022-12-03T17:46:23.383Z,73.07
2022-12-03T17:48:52.090Z,73.07
2022-12-03T17:51:20.845Z,73.24
2022-12-03T17:53:47.507Z,72.89
2022-12-03T17:56:13.973Z,73.19
2022-12-03T17:58:40.459Z,73.35
2022-12-03T18:01:08.642Z,72.91
2022-12-03T18:03:35.327Z,73.12
2022-12-03T18:06:02.254Z,73.00
2022-12-03T18:08:28.877Z,72.99
2022-12-03T18:10:55.542Z,72.91
2022-12-03T18:13:22.197Z,72.89
2022-12-03T18:15:48.745Z,73.07
2022-12-03T18:18:15.203Z,73.36
2022-12-03T18:20:41.686Z,73.45
2022-12-03T18:23:08.231Z,73.47
2022-12-03T18:25:34.725Z,73.84
2022-12-03T18:28:01.293Z,73.27
2022-12-03T18:30:27.856Z,73.52
2022-12-03T18:32:54.854Z,73.34
2022-12-03T18:35:21.632Z,73.50
2022-12-03T18:37:50.025Z,73.69
2022-12-03T18:40:22.839Z,73.90
2022-12-03T18:42:49.368Z,73.88
2022-12-03T18:45:16.547Z,73.92
2022-12-03T18:47:43.621Z,73.87
2022-12-03T18:50:11.518Z,73.64
2022-12-03T18:52:38.472Z,73.50
2022-12-03T18:55:06.607Z,73.30
2022-12-03T18:57:33.110Z,73.41
2022-12-03T18:59:59.668Z,73.85
2022-12-03T19:02:54.109Z,73.30
2022-12-03T19:05:13.012Z,73.85
2022-12-03T19:07:39.548Z,74.07
2022-12-03T19:10:06.947Z,74.17
2022-12-03T19:12:33.727Z,73.69
2022-12-03T19:15:03.499Z,73.74
2022-12-03T19:17:29.996Z,73.63
2022-12-03T19:19:57.005Z,73.76
2022-12-03T19:22:24.124Z,73.89
2022-12-03T19:24:50.632Z,73.38
2022-12-03T19:27:17.408Z,73.88
2022-12-03T19:29:44.303Z,73.76
2022-12-03T19:32:10.739Z,73.93
2022-12-03T19:34:38.145Z,74.10
2022-12-03T19:37:04.593Z,73.94
2022-12-03T19:39:31.874Z,73.55
2022-12-03T19:41:58.344Z,74.00
2022-12-03T19:44:24.901Z,73.73
2022-12-03T19:46:51.386Z,73.63
2022-12-03T19:49:20.989Z,73.67
2022-12-03T19:51:47.737Z,73.46
2022-12-03T19:54:14.833Z,73.38
2022-12-03T19:56:41.406Z,73.94
2022-12-03T19:59:08.055Z,73.65
2022-12-03T20:01:36.215Z,73.68
2022-12-03T20:04:04.340Z,73.63
2022-12-03T20:06:34.014Z,73.53
2022-12-03T20:09:03.769Z,73.48
2022-12-03T20:11:33.122Z,73.37
2022-12-03T20:14:02.559Z,73.66
2022-12-03T20:16:31.130Z,73.40
2022-12-03T20:18:59.889Z,73.76
2022-12-03T20:21:28.556Z,73.19
2022-12-03T20:23:55.088Z,73.29
2022-12-03T20:26:22.754Z,74.06
2022-12-03T20:28:50.117Z,73.63
2022-12-03T20:31:19.627Z,73.83
2022-12-03T20:33:49.124Z,73.90
2022-12-03T20:36:18.801Z,74.21
2022-12-03T20:38:45.374Z,74.17
2022-12-03T20:41:15.048Z,73.85
2022-12-03T20:43:41.814Z,73.58
2022-12-03T20:46:13.775Z,73.67
2022-12-03T20:48:42.058Z,73.61
2022-12-03T20:51:10.657Z,73.98
2022-12-03T20:53:38.018Z,73.88
2022-12-03T20:56:05.492Z,73.95
2022-12-03T20:58:32.778Z,73.67
2022-12-03T21:01:14.092Z,74.07
2022-12-03T21:03:42.326Z,73.62
2022-12-03T21:06:09.637Z,73.82
2022-12-03T21:08:41.478Z,73.62
2022-12-03T21:11:11.758Z,73.41
2022-12-03T21:13:41.262Z,73.82
2022-12-03T21:16:10.396Z,73.77
2022-12-03T21:18:36.932Z,74.01
2022-12-03T21:21:04.964Z,74.28
2022-12-03T21:23:33.025Z,74.23
2022-12-03T21:26:08.984Z,74.42
2022-12-03T21:28:35.830Z,74.68
2022-12-03T21:31:04.134Z,74.38
2022-12-03T21:33:31.652Z,74.61
2022-12-03T21:35:59.214Z,74.30
2022-12-03T21:38:27.442Z,74.20
2022-12-03T21:40:54.170Z,74.52
2022-12-03T21:43:21.145Z,74.59
2022-12-03T21:45:47.985Z,74.27
2022-12-03T21:48:15.381Z,74.36
2022-12-03T21:50:41.929Z,74.20
2022-12-03T21:53:08.618Z,74.01
2022-12-03T21:55:35.118Z,74.11
2022-12-03T21:58:01.882Z,74.17
2022-12-03T22:00:28.441Z,74.51
2022-12-03T22:02:54.989Z,74.02
2022-12-03T22:05:21.626Z,74.37
2022-12-03T22:07:48.152Z,74.03
2022-12-03T22:10:14.726Z,74.52
2022-12-03T22:12:42.018Z,74.75
2022-12-03T22:15:16.721Z,74.40
2022-12-03T22:17:45.430Z,74.47
2022-12-03T22:20:12.282Z,74.22
2022-12-03T22:22:38.716Z,74.18
2022-12-03T22:25:05.320Z,74.49
2022-12-03T22:27:31.835Z,74.05
2022-12-03T22:29:58.296Z,74.17
2022-12-03T22:32:25.002Z,74.09
2022-12-03T22:34:51.643Z,74.00
2022-12-03T22:37:18.119Z,73.95
2022-12-03T22:39:44.646Z,74.24
2022-12-03T22:42:11.179Z,74.27
2022-12-03T22:44:37.738Z,74.49
2022-12-03T22:47:04.507Z,74.60
2022-12-03T22:49:30.946Z,74.65
2022-12-03T22:51:57.398Z,74.66
2022-12-03T22:54:24.633Z,74.80
2022-12-03T22:56:51.208Z,74.60
2022-12-03T22:59:17.883Z,74.73
2022-12-03T23:01:44.571Z,74.82
2022-12-03T23:04:11.757Z,74.46
2022-12-03T23:06:38.946Z,74.24
2022-12-03T23:09:07.002Z,74.94
2022-12-03T23:11:33.749Z,74.33
2022-12-03T23:14:00.268Z,74.32
2022-12-03T23:16:29.676Z,74.27
2022-12-03T23:18:58.781Z,74.28
2022-12-03T23:21:29.962Z,74.89
2022-12-03T23:24:01.494Z,74.93
2022-12-03T23:26:28.677Z,74.71
2022-12-03T23:28:56.081Z,75.07
2022-12-03T23:31:30.075Z,75.04
2022-12-03T23:33:57.781Z,74.43
2022-12-03T23:36:25.612Z,74.98
2022-12-03T23:38:52.503Z,74.75
2022-12-03T23:41:21.516Z,74.68
2022-12-03T23:43:48.473Z,74.55
2022-12-03T23:46:18.769Z,74.53
2022-12-03T23:48:45.714Z,75.07
2022-12-03T23:51:15.629Z,75.34
2022-12-03T23:53:42.314Z,75.27
2022-12-03T23:56:11.798Z,75.53
2022-12-03T23:58:38.718Z,75.51
